sensor_id;sensor_type;location;lat;lon;timestamp;temperature;humidity
67942;SHT31;54731;42.600;23.476;2022-12-18T00:01:49;7.02;84.08
67942;SHT31;54731;42.600;23.476;2022-12-18T00:04:24;7.00;84.10
67942;SHT31;54731;42.600;23.476;2022-12-18T00:06:50;6.83;84.16
67942;SHT31;54731;42.600;23.476;2022-12-18T00:09:21;6.76;84.13
67942;SHT31;54731;42.600;23.476;2022-12-18T00:11:49;6.73;84.20
67942;SHT31;54731;42.600;23.476;2022-12-18T00:14:15;6.71;84.30
67942;SHT31;54731;42.600;23.476;2022-12-18T00:16:46;6.75;84.26
67942;SHT31;54731;42.600;23.476;2022-12-18T00:19:15;6.68;83.34
67942;SHT31;54731;42.600;23.476;2022-12-18T00:21:46;6.52;83.69
67942;SHT31;54731;42.600;23.476;2022-12-18T00:24:19;6.51;83.65
67942;SHT31;54731;42.600;23.476;2022-12-18T00:26:47;6.52;83.74
67942;SHT31;54731;42.600;23.476;2022-12-18T00:29:13;6.46;83.29
67942;SHT31;54731;42.600;23.476;2022-12-18T00:31:40;6.51;83.17
67942;SHT31;54731;42.600;23.476;2022-12-18T00:34:10;6.55;82.48
67942;SHT31;54731;42.600;23.476;2022-12-18T00:36:39;6.48;82.51
67942;SHT31;54731;42.600;23.476;2022-12-18T00:39:10;6.34;82.64
67942;SHT31;54731;42.600;23.476;2022-12-18T00:41:50;6.27;82.96
67942;SHT31;54731;42.600;23.476;2022-12-18T00:44:18;6.34;82.83
67942;SHT31;54731;42.600;23.476;2022-12-18T00:47:01;6.27;82.26
67942;SHT31;54731;42.600;23.476;2022-12-18T00:52:42;6.32;82.74
67942;SHT31;54731;42.600;23.476;2022-12-18T00:55:48;6.30;82.49
67942;SHT31;54731;42.600;23.476;2022-12-18T00:58:39;6.30;82.14
67942;SHT31;54731;42.600;23.476;2022-12-18T01:01:13;6.21;82.24
67942;SHT31;54731;42.600;23.476;2022-12-18T01:03:46;6.28;82.19
67942;SHT31;54731;42.600;23.476;2022-12-18T01:06:23;6.08;82.35
67942;SHT31;54731;42.600;23.476;2022-12-18T01:08:51;6.07;82.53
67942;SHT31;54731;42.600;23.476;2022-12-18T01:11:30;6.14;82.27
67942;SHT31;54731;42.600;23.476;2022-12-18T01:13:55;6.14;82.01
67942;SHT31;54731;42.600;23.476;2022-12-18T01:16:24;6.10;82.04
67942;SHT31;54731;42.600;23.476;2022-12-18T01:18:57;6.10;82.03
67942;SHT31;54731;42.600;23.476;2022-12-18T01:21:23;6.11;81.78
67942;SHT31;54731;42.600;23.476;2022-12-18T01:23:58;6.16;81.63
67942;SHT31;54731;42.600;23.476;2022-12-18T01:26:33;6.13;81.56
67942;SHT31;54731;42.600;23.476;2022-12-18T01:29:01;6.07;81.54
67942;SHT31;54731;42.600;23.476;2022-12-18T01:31:28;6.00;81.61
67942;SHT31;54731;42.600;23.476;2022-12-18T01:34:00;5.98;81.60
67942;SHT31;54731;42.600;23.476;2022-12-18T01:36:28;5.96;81.71
67942;SHT31;54731;42.600;23.476;2022-12-18T01:38:55;6.03;81.47
67942;SHT31;54731;42.600;23.476;2022-12-18T01:41:27;6.00;81.51
67942;SHT31;54731;42.600;23.476;2022-12-18T01:43:57;5.86;81.74
67942;SHT31;54731;42.600;23.476;2022-12-18T01:46:25;5.70;81.39
67942;SHT31;54731;42.600;23.476;2022-12-18T01:48:54;5.62;81.80
67942;SHT31;54731;42.600;23.476;2022-12-18T01:51:22;5.63;81.68
67942;SHT31;54731;42.600;23.476;2022-12-18T01:53:48;5.60;81.56
67942;SHT31;54731;42.600;23.476;2022-12-18T01:56:18;5.56;81.61
67942;SHT31;54731;42.600;23.476;2022-12-18T01:58:55;5.52;81.21
67942;SHT31;54731;42.600;23.476;2022-12-18T02:01:26;5.45;81.22
67942;SHT31;54731;42.600;23.476;2022-12-18T02:03:55;5.32;81.58
67942;SHT31;54731;42.600;23.476;2022-12-18T02:06:43;5.35;81.63
67942;SHT31;54731;42.600;23.476;2022-12-18T02:09:17;5.36;81.77
67942;SHT31;54731;42.600;23.476;2022-12-18T02:11:53;5.32;81.60
67942;SHT31;54731;42.600;23.476;2022-12-18T02:17:11;5.34;81.82
67942;SHT31;54731;42.600;23.476;2022-12-18T02:22:26;5.32;81.19
67942;SHT31;54731;42.600;23.476;2022-12-18T02:27:39;5.22;81.30
67942;SHT31;54731;42.600;23.476;2022-12-18T02:30:06;5.14;81.64
67942;SHT31;54731;42.600;23.476;2022-12-18T02:32:40;5.12;81.76
67942;SHT31;54731;42.600;23.476;2022-12-18T02:35:13;5.12;81.63
67942;SHT31;54731;42.600;23.476;2022-12-18T02:37:40;5.14;81.72
67942;SHT31;54731;42.600;23.476;2022-12-18T02:40:08;5.19;81.52
67942;SHT31;54731;42.600;23.476;2022-12-18T02:42:34;4.98;81.86
67942;SHT31;54731;42.600;23.476;2022-12-18T02:44:59;4.98;82.14
67942;SHT31;54731;42.600;23.476;2022-12-18T02:47:30;4.98;82.30
67942;SHT31;54731;42.600;23.476;2022-12-18T02:57:51;4.95;82.31
67942;SHT31;54731;42.600;23.476;2022-12-18T03:00:35;4.94;82.04
67942;SHT31;54731;42.600;23.476;2022-12-18T03:03:07;4.94;82.11
67942;SHT31;54731;42.600;23.476;2022-12-18T03:06:02;4.95;82.06
67942;SHT31;54731;42.600;23.476;2022-12-18T03:08:33;4.99;81.78
67942;SHT31;54731;42.600;23.476;2022-12-18T03:11:08;4.98;81.68
67942;SHT31;54731;42.600;23.476;2022-12-18T03:13:45;4.98;82.03
67942;SHT31;54731;42.600;23.476;2022-12-18T03:16:25;4.96;81.87
67942;SHT31;54731;42.600;23.476;2022-12-18T03:18:56;4.94;81.68
67942;SHT31;54731;42.600;23.476;2022-12-18T03:21:28;4.87;81.87
67942;SHT31;54731;42.600;23.476;2022-12-18T03:23:58;4.80;81.64
67942;SHT31;54731;42.600;23.476;2022-12-18T03:26:28;4.68;82.31
67942;SHT31;54731;42.600;23.476;2022-12-18T03:29:01;4.62;82.23
67942;SHT31;54731;42.600;23.476;2022-12-18T03:31:30;4.61;82.18
67942;SHT31;54731;42.600;23.476;2022-12-18T03:34:02;4.62;82.26
67942;SHT31;54731;42.600;23.476;2022-12-18T03:36:30;4.65;82.30
67942;SHT31;54731;42.600;23.476;2022-12-18T03:38:55;4.53;81.99
67942;SHT31;54731;42.600;23.476;2022-12-18T03:41:34;4.49;82.29
67942;SHT31;54731;42.600;23.476;2022-12-18T03:47:08;4.43;82.26
67942;SHT31;54731;42.600;23.476;2022-12-18T03:49:40;4.32;82.57
67942;SHT31;54731;42.600;23.476;2022-12-18T03:52:19;4.32;82.53
67942;SHT31;54731;42.600;23.476;2022-12-18T03:54:46;4.37;82.61
67942;SHT31;54731;42.600;23.476;2022-12-18T03:57:16;4.33;82.52
67942;SHT31;54731;42.600;23.476;2022-12-18T03:59:44;4.39;82.59
67942;SHT31;54731;42.600;23.476;2022-12-18T04:02:11;4.33;82.56
67942;SHT31;54731;42.600;23.476;2022-12-18T04:04:38;4.34;82.39
67942;SHT31;54731;42.600;23.476;2022-12-18T04:07:05;4.33;82.61
67942;SHT31;54731;42.600;23.476;2022-12-18T04:09:32;4.33;82.50
67942;SHT31;54731;42.600;23.476;2022-12-18T04:11:59;4.36;82.60
67942;SHT31;54731;42.600;23.476;2022-12-18T04:14:24;4.41;82.01
67942;SHT31;54731;42.600;23.476;2022-12-18T04:16:50;4.36;81.88
67942;SHT31;54731;42.600;23.476;2022-12-18T04:19:18;4.32;82.02
67942;SHT31;54731;42.600;23.476;2022-12-18T04:21:44;4.19;82.15
67942;SHT31;54731;42.600;23.476;2022-12-18T04:24:09;4.16;82.13
67942;SHT31;54731;42.600;23.476;2022-12-18T04:26:35;4.17;82.03
67942;SHT31;54731;42.600;23.476;2022-12-18T04:29:00;4.11;82.06
67942;SHT31;54731;42.600;23.476;2022-12-18T04:31:26;4.14;82.12
67942;SHT31;54731;42.600;23.476;2022-12-18T04:33:52;4.14;82.29
67942;SHT31;54731;42.600;23.476;2022-12-18T04:36:17;4.20;81.99
67942;SHT31;54731;42.600;23.476;2022-12-18T04:38:43;4.14;81.68
67942;SHT31;54731;42.600;23.476;2022-12-18T04:41:08;4.16;81.75
67942;SHT31;54731;42.600;23.476;2022-12-18T04:43:34;4.11;82.04
67942;SHT31;54731;42.600;23.476;2022-12-18T04:46:04;4.07;81.84
67942;SHT31;54731;42.600;23.476;2022-12-18T04:48:29;4.13;81.62
67942;SHT31;54731;42.600;23.476;2022-12-18T04:50:55;4.13;81.59
67942;SHT31;54731;42.600;23.476;2022-12-18T04:53:20;4.13;81.51
67942;SHT31;54731;42.600;23.476;2022-12-18T04:55:46;4.16;81.28
67942;SHT31;54731;42.600;23.476;2022-12-18T04:58:11;4.11;80.92
67942;SHT31;54731;42.600;23.476;2022-12-18T05:00:36;4.09;81.18
67942;SHT31;54731;42.600;23.476;2022-12-18T05:03:02;4.10;80.66
67942;SHT31;54731;42.600;23.476;2022-12-18T05:05:28;4.02;80.82
67942;SHT31;54731;42.600;23.476;2022-12-18T05:07:53;4.00;80.61
67942;SHT31;54731;42.600;23.476;2022-12-18T05:10:19;3.92;80.79
67942;SHT31;54731;42.600;23.476;2022-12-18T05:12:44;3.90;80.71
67942;SHT31;54731;42.600;23.476;2022-12-18T05:15:10;3.92;80.92
67942;SHT31;54731;42.600;23.476;2022-12-18T05:17:35;3.90;79.91
67942;SHT31;54731;42.600;23.476;2022-12-18T05:20:01;3.83;80.24
67942;SHT31;54731;42.600;23.476;2022-12-18T05:22:26;3.83;80.33
67942;SHT31;54731;42.600;23.476;2022-12-18T05:24:51;3.83;80.03
67942;SHT31;54731;42.600;23.476;2022-12-18T05:27:17;3.87;80.01
67942;SHT31;54731;42.600;23.476;2022-12-18T05:29:42;3.82;79.96
67942;SHT31;54731;42.600;23.476;2022-12-18T05:32:08;3.82;79.88
67942;SHT31;54731;42.600;23.476;2022-12-18T05:34:34;3.79;80.45
67942;SHT31;54731;42.600;23.476;2022-12-18T05:36:59;3.79;80.03
67942;SHT31;54731;42.600;23.476;2022-12-18T05:39:24;3.78;80.10
67942;SHT31;54731;42.600;23.476;2022-12-18T05:41:50;3.81;80.15
67942;SHT31;54731;42.600;23.476;2022-12-18T05:44:15;3.82;79.09
67942;SHT31;54731;42.600;23.476;2022-12-18T05:46:41;3.79;79.76
67942;SHT31;54731;42.600;23.476;2022-12-18T05:49:06;3.78;79.51
67942;SHT31;54731;42.600;23.476;2022-12-18T05:51:32;3.65;79.74
67942;SHT31;54731;42.600;23.476;2022-12-18T05:53:57;3.66;79.67
67942;SHT31;54731;42.600;23.476;2022-12-18T05:56:23;3.66;79.90
67942;SHT31;54731;42.600;23.476;2022-12-18T05:58:52;3.56;80.19
67942;SHT31;54731;42.600;23.476;2022-12-18T06:01:21;3.61;79.87
67942;SHT31;54731;42.600;23.476;2022-12-18T06:03:46;3.68;79.83
67942;SHT31;54731;42.600;23.476;2022-12-18T06:06:17;3.69;79.84
67942;SHT31;54731;42.600;23.476;2022-12-18T06:08:43;3.65;80.08
67942;SHT31;54731;42.600;23.476;2022-12-18T06:11:09;3.66;80.21
67942;SHT31;54731;42.600;23.476;2022-12-18T06:13:37;3.78;79.93
67942;SHT31;54731;42.600;23.476;2022-12-18T06:16:05;3.64;79.46
67942;SHT31;54731;42.600;23.476;2022-12-18T06:18:31;3.65;79.04
67942;SHT31;54731;42.600;23.476;2022-12-18T06:20:57;3.62;78.99
67942;SHT31;54731;42.600;23.476;2022-12-18T06:23:23;3.61;79.01
67942;SHT31;54731;42.600;23.476;2022-12-18T06:25:49;3.48;79.38
67942;SHT31;54731;42.600;23.476;2022-12-18T06:28:15;3.48;79.42
67942;SHT31;54731;42.600;23.476;2022-12-18T06:30:43;3.52;79.55
67942;SHT31;54731;42.600;23.476;2022-12-18T06:33:08;3.54;79.04
67942;SHT31;54731;42.600;23.476;2022-12-18T06:35:34;3.50;79.20
67942;SHT31;54731;42.600;23.476;2022-12-18T06:38:01;3.42;79.72
67942;SHT31;54731;42.600;23.476;2022-12-18T06:40:26;3.48;79.89
67942;SHT31;54731;42.600;23.476;2022-12-18T06:42:52;3.50;79.53
67942;SHT31;54731;42.600;23.476;2022-12-18T06:45:18;3.41;79.91
67942;SHT31;54731;42.600;23.476;2022-12-18T06:47:43;3.39;80.01
67942;SHT31;54731;42.600;23.476;2022-12-18T06:50:09;3.48;79.58
67942;SHT31;54731;42.600;23.476;2022-12-18T06:52:34;3.54;79.63
67942;SHT31;54731;42.600;23.476;2022-12-18T06:55:01;3.48;79.34
67942;SHT31;54731;42.600;23.476;2022-12-18T06:57:26;3.51;79.73
67942;SHT31;54731;42.600;23.476;2022-12-18T06:59:52;3.58;79.15
67942;SHT31;54731;42.600;23.476;2022-12-18T07:02:17;3.64;78.75
67942;SHT31;54731;42.600;23.476;2022-12-18T07:04:43;3.65;79.11
67942;SHT31;54731;42.600;23.476;2022-12-18T07:07:08;3.66;78.79
67942;SHT31;54731;42.600;23.476;2022-12-18T07:09:33;3.62;78.41
67942;SHT31;54731;42.600;23.476;2022-12-18T07:11:59;3.59;78.22
67942;SHT31;54731;42.600;23.476;2022-12-18T07:14:25;3.61;78.90
67942;SHT31;54731;42.600;23.476;2022-12-18T07:16:50;3.68;78.87
67942;SHT31;54731;42.600;23.476;2022-12-18T07:19:15;3.61;79.20
67942;SHT31;54731;42.600;23.476;2022-12-18T07:21:41;3.66;79.16
67942;SHT31;54731;42.600;23.476;2022-12-18T07:24:07;3.72;78.60
67942;SHT31;54731;42.600;23.476;2022-12-18T07:26:34;3.75;78.65
67942;SHT31;54731;42.600;23.476;2022-12-18T07:28:59;3.81;78.42
67942;SHT31;54731;42.600;23.476;2022-12-18T07:31:39;3.71;77.90
67942;SHT31;54731;42.600;23.476;2022-12-18T07:34:14;3.74;77.79
67942;SHT31;54731;42.600;23.476;2022-12-18T07:37:29;3.65;77.96
67942;SHT31;54731;42.600;23.476;2022-12-18T07:39:28;3.72;78.19
67942;SHT31;54731;42.600;23.476;2022-12-18T07:42:03;3.68;77.33
67942;SHT31;54731;42.600;23.476;2022-12-18T07:44:29;3.56;77.72
67942;SHT31;54731;42.600;23.476;2022-12-18T07:46:54;3.61;77.80
67942;SHT31;54731;42.600;23.476;2022-12-18T07:49:20;3.66;77.73
67942;SHT31;54731;42.600;23.476;2022-12-18T07:54:41;3.66;77.37
67942;SHT31;54731;42.600;23.476;2022-12-18T07:57:10;3.51;77.87
67942;SHT31;54731;42.600;23.476;2022-12-18T07:59:36;3.51;77.76
67942;SHT31;54731;42.600;23.476;2022-12-18T08:02:01;3.54;78.04
67942;SHT31;54731;42.600;23.476;2022-12-18T08:04:27;3.52;78.00
67942;SHT31;54731;42.600;23.476;2022-12-18T08:06:52;3.56;78.00
67942;SHT31;54731;42.600;23.476;2022-12-18T08:09:18;3.61;77.43
67942;SHT31;54731;42.600;23.476;2022-12-18T08:11:43;3.58;77.39
67942;SHT31;54731;42.600;23.476;2022-12-18T08:14:09;3.56;77.27
67942;SHT31;54731;42.600;23.476;2022-12-18T08:16:35;3.66;77.56
67942;SHT31;54731;42.600;23.476;2022-12-18T08:19:00;3.58;77.23
67942;SHT31;54731;42.600;23.476;2022-12-18T08:21:29;3.55;76.15
67942;SHT31;54731;42.600;23.476;2022-12-18T08:23:57;3.56;76.91
67942;SHT31;54731;42.600;23.476;2022-12-18T08:26:25;3.56;76.43
67942;SHT31;54731;42.600;23.476;2022-12-18T08:28:51;3.44;76.86
67942;SHT31;54731;42.600;23.476;2022-12-18T08:31:18;3.50;77.04
67942;SHT31;54731;42.600;23.476;2022-12-18T08:33:44;3.58;76.58
67942;SHT31;54731;42.600;23.476;2022-12-18T08:36:09;3.51;76.20
67942;SHT31;54731;42.600;23.476;2022-12-18T08:38:35;3.46;76.66
67942;SHT31;54731;42.600;23.476;2022-12-18T08:41:01;3.55;76.64
67942;SHT31;54731;42.600;23.476;2022-12-18T08:43:27;3.58;76.61
67942;SHT31;54731;42.600;23.476;2022-12-18T08:45:53;3.61;76.22
67942;SHT31;54731;42.600;23.476;2022-12-18T08:48:18;3.52;76.50
67942;SHT31;54731;42.600;23.476;2022-12-18T08:50:52;3.55;76.29
67942;SHT31;54731;42.600;23.476;2022-12-18T08:53:18;3.59;76.37
67942;SHT31;54731;42.600;23.476;2022-12-18T08:55:43;3.58;76.06
67942;SHT31;54731;42.600;23.476;2022-12-18T08:58:09;3.56;75.77
67942;SHT31;54731;42.600;23.476;2022-12-18T09:00:35;3.61;76.29
67942;SHT31;54731;42.600;23.476;2022-12-18T09:03:00;3.56;76.17
67942;SHT31;54731;42.600;23.476;2022-12-18T09:05:25;3.52;76.40
67942;SHT31;54731;42.600;23.476;2022-12-18T09:07:51;3.59;76.63
67942;SHT31;54731;42.600;23.476;2022-12-18T09:10:16;3.59;76.55
67942;SHT31;54731;42.600;23.476;2022-12-18T09:12:42;3.72;76.09
67942;SHT31;54731;42.600;23.476;2022-12-18T09:15:07;3.71;75.55
67942;SHT31;54731;42.600;23.476;2022-12-18T09:17:33;3.66;75.51
67942;SHT31;54731;42.600;23.476;2022-12-18T09:19:58;3.62;76.08
67942;SHT31;54731;42.600;23.476;2022-12-18T09:22:27;3.64;76.56
67942;SHT31;54731;42.600;23.476;2022-12-18T09:24:52;3.71;75.74
67942;SHT31;54731;42.600;23.476;2022-12-18T09:27:18;3.62;75.92
67942;SHT31;54731;42.600;23.476;2022-12-18T09:29:43;3.64;75.89
67942;SHT31;54731;42.600;23.476;2022-12-18T09:32:09;3.64;75.79
67942;SHT31;54731;42.600;23.476;2022-12-18T09:34:34;3.46;76.53
67942;SHT31;54731;42.600;23.476;2022-12-18T09:37:00;3.54;76.48
67942;SHT31;54731;42.600;23.476;2022-12-18T09:39:25;3.59;76.38
67942;SHT31;54731;42.600;23.476;2022-12-18T09:41:55;3.51;76.57
67942;SHT31;54731;42.600;23.476;2022-12-18T09:49:49;3.56;76.56
67942;SHT31;54731;42.600;23.476;2022-12-18T09:52:21;3.56;76.17
67942;SHT31;54731;42.600;23.476;2022-12-18T09:54:56;3.58;76.20
67942;SHT31;54731;42.600;23.476;2022-12-18T09:57:24;3.62;76.16
67942;SHT31;54731;42.600;23.476;2022-12-18T09:59:55;3.65;76.35
67942;SHT31;54731;42.600;23.476;2022-12-18T10:02:26;3.66;76.32
67942;SHT31;54731;42.600;23.476;2022-12-18T10:05:16;3.66;75.75
67942;SHT31;54731;42.600;23.476;2022-12-18T10:08:05;3.68;75.27
67942;SHT31;54731;42.600;23.476;2022-12-18T10:10:53;3.64;74.91
67942;SHT31;54731;42.600;23.476;2022-12-18T10:17:11;3.74;74.47
67942;SHT31;54731;42.600;23.476;2022-12-18T10:21:51;3.64;74.98
67942;SHT31;54731;42.600;23.476;2022-12-18T10:27:15;3.71;74.83
67942;SHT31;54731;42.600;23.476;2022-12-18T10:29:43;3.75;74.79
67942;SHT31;54731;42.600;23.476;2022-12-18T10:32:20;3.81;74.69
67942;SHT31;54731;42.600;23.476;2022-12-18T10:34:47;3.82;74.31
67942;SHT31;54731;42.600;23.476;2022-12-18T10:37:22;3.79;73.39
67942;SHT31;54731;42.600;23.476;2022-12-18T10:42:32;3.64;73.41
67942;SHT31;54731;42.600;23.476;2022-12-18T10:45:13;3.65;72.82
67942;SHT31;54731;42.600;23.476;2022-12-18T10:47:48;3.66;73.82
67942;SHT31;54731;42.600;23.476;2022-12-18T10:50:33;3.74;73.88
67942;SHT31;54731;42.600;23.476;2022-12-18T10:53:01;3.75;72.59
67942;SHT31;54731;42.600;23.476;2022-12-18T10:55:32;3.75;72.30
67942;SHT31;54731;42.600;23.476;2022-12-18T11:00:39;3.74;71.93
67942;SHT31;54731;42.600;23.476;2022-12-18T11:03:31;3.62;72.08
67942;SHT31;54731;42.600;23.476;2022-12-18T11:06:18;3.62;72.26
67942;SHT31;54731;42.600;23.476;2022-12-18T11:08:57;3.75;72.27
67942;SHT31;54731;42.600;23.476;2022-12-18T11:11:24;3.83;72.41
67942;SHT31;54731;42.600;23.476;2022-12-18T11:14:05;3.79;73.22
67942;SHT31;54731;42.600;23.476;2022-12-18T11:16:43;3.83;73.11
67942;SHT31;54731;42.600;23.476;2022-12-18T11:19:28;3.87;73.31
67942;SHT31;54731;42.600;23.476;2022-12-18T11:21:55;3.92;73.36
67942;SHT31;54731;42.600;23.476;2022-12-18T11:24:32;3.82;73.24
67942;SHT31;54731;42.600;23.476;2022-12-18T11:27:06;3.82;73.15
67942;SHT31;54731;42.600;23.476;2022-12-18T11:29:41;3.83;72.44
67942;SHT31;54731;42.600;23.476;2022-12-18T11:35:04;3.71;72.64
67942;SHT31;54731;42.600;23.476;2022-12-18T11:37:47;3.78;72.80
67942;SHT31;54731;42.600;23.476;2022-12-18T11:40:16;3.79;71.08
67942;SHT31;54731;42.600;23.476;2022-12-18T11:43:44;3.76;70.18
67942;SHT31;54731;42.600;23.476;2022-12-18T11:45:59;3.68;69.97
67942;SHT31;54731;42.600;23.476;2022-12-18T11:48:30;3.71;70.70
67942;SHT31;54731;42.600;23.476;2022-12-18T11:51:00;3.72;70.77
67942;SHT31;54731;42.600;23.476;2022-12-18T11:53:27;3.78;71.24
67942;SHT31;54731;42.600;23.476;2022-12-18T11:59:24;3.82;70.33
67942;SHT31;54731;42.600;23.476;2022-12-18T12:07:58;3.89;71.23
67942;SHT31;54731;42.600;23.476;2022-12-18T12:10:47;3.89;70.77
67942;SHT31;54731;42.600;23.476;2022-12-18T12:13:28;3.86;70.33
67942;SHT31;54731;42.600;23.476;2022-12-18T12:19:00;3.87;70.19
67942;SHT31;54731;42.600;23.476;2022-12-18T12:21:41;3.89;69.35
67942;SHT31;54731;42.600;23.476;2022-12-18T12:26:56;3.85;69.42
67942;SHT31;54731;42.600;23.476;2022-12-18T12:40:24;3.68;69.61
67942;SHT31;54731;42.600;23.476;2022-12-18T12:43:10;3.68;69.64
67942;SHT31;54731;42.600;23.476;2022-12-18T12:45:42;3.69;70.16
67942;SHT31;54731;42.600;23.476;2022-12-18T12:48:17;3.68;70.38
67942;SHT31;54731;42.600;23.476;2022-12-18T12:50:45;3.72;71.06
67942;SHT31;54731;42.600;23.476;2022-12-18T12:53:21;3.72;71.38
67942;SHT31;54731;42.600;23.476;2022-12-18T12:55:47;3.68;71.82
67942;SHT31;54731;42.600;23.476;2022-12-18T12:58:53;3.64;72.14
67942;SHT31;54731;42.600;23.476;2022-12-18T13:06:37;3.64;72.01
67942;SHT31;54731;42.600;23.476;2022-12-18T13:09:18;3.68;71.58
67942;SHT31;54731;42.600;23.476;2022-12-18T13:11:45;3.71;71.36
67942;SHT31;54731;42.600;23.476;2022-12-18T13:14:24;3.71;71.54
67942;SHT31;54731;42.600;23.476;2022-12-18T13:16:51;3.72;71.83
67942;SHT31;54731;42.600;23.476;2022-12-18T13:19:26;3.78;71.39
67942;SHT31;54731;42.600;23.476;2022-12-18T13:21:55;3.75;71.29
67942;SHT31;54731;42.600;23.476;2022-12-18T13:24:31;3.71;71.35
67942;SHT31;54731;42.600;23.476;2022-12-18T13:26:56;3.78;71.56
67942;SHT31;54731;42.600;23.476;2022-12-18T13:29:45;3.78;71.60
67942;SHT31;54731;42.600;23.476;2022-12-18T13:32:24;3.85;71.87
67942;SHT31;54731;42.600;23.476;2022-12-18T13:37:54;3.79;72.19
67942;SHT31;54731;42.600;23.476;2022-12-18T13:43:35;3.85;71.53
67942;SHT31;54731;42.600;23.476;2022-12-18T13:46:30;3.87;71.85
67942;SHT31;54731;42.600;23.476;2022-12-18T13:51:51;3.97;72.16
67942;SHT31;54731;42.600;23.476;2022-12-18T13:54:51;3.95;71.35
67942;SHT31;54731;42.600;23.476;2022-12-18T13:59:55;3.93;71.99
67942;SHT31;54731;42.600;23.476;2022-12-18T14:02:26;3.90;72.00
67942;SHT31;54731;42.600;23.476;2022-12-18T14:04:53;3.87;71.98
67942;SHT31;54731;42.600;23.476;2022-12-18T14:07:24;3.87;72.55
67942;SHT31;54731;42.600;23.476;2022-12-18T14:09:52;3.90;72.55
67942;SHT31;54731;42.600;23.476;2022-12-18T14:12:24;3.93;72.14
67942;SHT31;54731;42.600;23.476;2022-12-18T14:14:51;3.93;71.75
67942;SHT31;54731;42.600;23.476;2022-12-18T14:17:18;3.87;72.25
67942;SHT31;54731;42.600;23.476;2022-12-18T14:19:46;3.87;72.19
67942;SHT31;54731;42.600;23.476;2022-12-18T14:22:21;3.90;72.18
67942;SHT31;54731;42.600;23.476;2022-12-18T14:25:10;3.87;72.10
67942;SHT31;54731;42.600;23.476;2022-12-18T14:27:43;3.93;72.00
67942;SHT31;54731;42.600;23.476;2022-12-18T14:35:31;3.87;72.17
67942;SHT31;54731;42.600;23.476;2022-12-18T14:38:10;3.86;72.14
67942;SHT31;54731;42.600;23.476;2022-12-18T14:40:36;3.86;71.63
67942;SHT31;54731;42.600;23.476;2022-12-18T14:43:02;3.87;72.25
67942;SHT31;54731;42.600;23.476;2022-12-18T14:45:38;3.85;72.30
67942;SHT31;54731;42.600;23.476;2022-12-18T14:50:37;3.75;72.93
67942;SHT31;54731;42.600;23.476;2022-12-18T14:53:03;3.72;72.74
67942;SHT31;54731;42.600;23.476;2022-12-18T14:55:29;3.74;72.77
67942;SHT31;54731;42.600;23.476;2022-12-18T14:57:57;3.66;72.91
67942;SHT31;54731;42.600;23.476;2022-12-18T15:00:24;3.75;72.48
67942;SHT31;54731;42.600;23.476;2022-12-18T15:02:54;3.81;70.69
67942;SHT31;54731;42.600;23.476;2022-12-18T15:05:25;3.76;70.63
67942;SHT31;54731;42.600;23.476;2022-12-18T15:07:53;3.74;70.65
67942;SHT31;54731;42.600;23.476;2022-12-18T15:10:25;3.72;70.19
67942;SHT31;54731;42.600;23.476;2022-12-18T15:13:20;3.71;70.51
67942;SHT31;54731;42.600;23.476;2022-12-18T15:15:47;3.72;70.15
67942;SHT31;54731;42.600;23.476;2022-12-18T15:18:19;3.64;70.26
67942;SHT31;54731;42.600;23.476;2022-12-18T15:21:07;3.66;70.02
67942;SHT31;54731;42.600;23.476;2022-12-18T15:23:52;3.65;69.60
67942;SHT31;54731;42.600;23.476;2022-12-18T15:26:20;3.56;70.04
67942;SHT31;54731;42.600;23.476;2022-12-18T15:36:26;3.54;69.47
67942;SHT31;54731;42.600;23.476;2022-12-18T15:38:57;3.46;69.49
67942;SHT31;54731;42.600;23.476;2022-12-18T15:41:23;3.54;69.18
67942;SHT31;54731;42.600;23.476;2022-12-18T15:43:51;3.51;69.57
67942;SHT31;54731;42.600;23.476;2022-12-18T15:46:24;3.41;69.30
67942;SHT31;54731;42.600;23.476;2022-12-18T15:48:52;3.36;69.73
67942;SHT31;54731;42.600;23.476;2022-12-18T15:53:53;3.42;69.55
67942;SHT31;54731;42.600;23.476;2022-12-18T15:56:39;3.42;69.12
67942;SHT31;54731;42.600;23.476;2022-12-18T15:59:20;3.39;68.57
67942;SHT31;54731;42.600;23.476;2022-12-18T16:01:50;3.41;69.33
67942;SHT31;54731;42.600;23.476;2022-12-18T16:04:18;3.35;68.96
67942;SHT31;54731;42.600;23.476;2022-12-18T16:06:44;3.35;69.30
67942;SHT31;54731;42.600;23.476;2022-12-18T16:09:09;3.42;69.04
67942;SHT31;54731;42.600;23.476;2022-12-18T16:11:36;3.44;68.19
67942;SHT31;54731;42.600;23.476;2022-12-18T16:14:02;3.39;68.49
67942;SHT31;54731;42.600;23.476;2022-12-18T16:16:27;3.42;68.35
67942;SHT31;54731;42.600;23.476;2022-12-18T16:18:52;3.32;68.51
67942;SHT31;54731;42.600;23.476;2022-12-18T16:21:18;3.32;68.54
67942;SHT31;54731;42.600;23.476;2022-12-18T16:23:43;3.32;68.30
67942;SHT31;54731;42.600;23.476;2022-12-18T16:26:08;3.21;68.67
67942;SHT31;54731;42.600;23.476;2022-12-18T16:28:34;3.24;68.53
67942;SHT31;54731;42.600;23.476;2022-12-18T16:30:59;3.21;68.52
67942;SHT31;54731;42.600;23.476;2022-12-18T16:33:24;3.25;67.80
67942;SHT31;54731;42.600;23.476;2022-12-18T16:35:52;3.21;68.18
67942;SHT31;54731;42.600;23.476;2022-12-18T16:38:18;3.18;68.10
67942;SHT31;54731;42.600;23.476;2022-12-18T16:40:43;3.15;68.33
67942;SHT31;54731;42.600;23.476;2022-12-18T16:43:08;3.21;68.06
67942;SHT31;54731;42.600;23.476;2022-12-18T16:45:34;3.17;67.85
67942;SHT31;54731;42.600;23.476;2022-12-18T16:47:59;3.18;67.99
67942;SHT31;54731;42.600;23.476;2022-12-18T16:50:24;3.14;68.39
67942;SHT31;54731;42.600;23.476;2022-12-18T16:52:49;3.08;68.49
67942;SHT31;54731;42.600;23.476;2022-12-18T16:55:15;3.05;68.75
67942;SHT31;54731;42.600;23.476;2022-12-18T16:57:40;3.11;68.04
67942;SHT31;54731;42.600;23.476;2022-12-18T17:00:06;3.07;68.47
67942;SHT31;54731;42.600;23.476;2022-12-18T17:02:32;3.07;67.62
67942;SHT31;54731;42.600;23.476;2022-12-18T17:04:57;3.08;67.83
67942;SHT31;54731;42.600;23.476;2022-12-18T17:07:23;3.07;67.90
67942;SHT31;54731;42.600;23.476;2022-12-18T17:09:49;3.00;68.31
67942;SHT31;54731;42.600;23.476;2022-12-18T17:12:14;3.03;67.96
67942;SHT31;54731;42.600;23.476;2022-12-18T17:14:40;2.96;68.03
67942;SHT31;54731;42.600;23.476;2022-12-18T17:17:05;2.93;68.00
67942;SHT31;54731;42.600;23.476;2022-12-18T17:19:30;2.90;67.52
67942;SHT31;54731;42.600;23.476;2022-12-18T17:21:56;2.90;68.05
67942;SHT31;54731;42.600;23.476;2022-12-18T17:24:21;2.84;67.50
67942;SHT31;54731;42.600;23.476;2022-12-18T17:26:47;2.81;68.21
67942;SHT31;54731;42.600;23.476;2022-12-18T17:29:14;2.83;67.86
67942;SHT31;54731;42.600;23.476;2022-12-18T17:31:39;2.84;68.51
67942;SHT31;54731;42.600;23.476;2022-12-18T17:34:05;2.84;68.36
67942;SHT31;54731;42.600;23.476;2022-12-18T17:36:30;2.80;68.47